sensor_id;sensor_type;location;lat;lon;timestamp;P1;durP1;ratioP1;P2;durP2;ratioP2
15799;SDS011;8002;51.196;7.010;2024-03-17T00:02:17;4.13;;;3.10;;
15799;SDS011;8002;51.196;7.010;2024-03-17T00:04:44;4.03;;;2.80;;
15799;SDS011;8002;51.196;7.010;2024-03-17T00:07:11;4.47;;;3.30;;
15799;SDS011;8002;51.196;7.010;2024-03-17T00:09:36;4.20;;;3.13;;
15799;SDS011;8002;51.196;7.010;2024-03-17T00:12:02;4.80;;;3.57;;
15799;SDS011;8002;51.196;7.010;2024-03-17T00:14:28;4.00;;;2.87;;
15799;SDS011;8002;51.196;7.010;2024-03-17T00:16:54;3.53;;;2.90;;
15799;SDS011;8002;51.196;7.010;2024-03-17T00:19:19;4.73;;;3.10;;
15799;SDS011;8002;51.196;7.010;2024-03-17T00:21:48;3.67;;;3.37;;
15799;SDS011;8002;51.196;7.010;2024-03-17T00:24:15;5.03;;;3.00;;
15799;SDS011;8002;51.196;7.010;2024-03-17T00:26:42;3.60;;;2.87;;
15799;SDS011;8002;51.196;7.010;2024-03-17T00:29:07;3.40;;;3.10;;
15799;SDS011;8002;51.196;7.010;2024-03-17T00:31:33;4.17;;;2.90;;
15799;SDS011;8002;51.196;7.010;2024-03-17T00:33:59;3.40;;;3.10;;
15799;SDS011;8002;51.196;7.010;2024-03-17T00:36:25;4.07;;;2.97;;
15799;SDS011;8002;51.196;7.010;2024-03-17T00:38:52;3.30;;;3.00;;
15799;SDS011;8002;51.196;7.010;2024-03-17T00:41:18;4.17;;;2.93;;
15799;SDS011;8002;51.196;7.010;2024-03-17T00:43:44;5.43;;;3.10;;
15799;SDS011;8002;51.196;7.010;2024-03-17T00:46:10;4.57;;;3.00;;
15799;SDS011;8002;51.196;7.010;2024-03-17T00:48:36;3.57;;;3.03;;
15799;SDS011;8002;51.196;7.010;2024-03-17T00:51:02;2.77;;;2.57;;
15799;SDS011;8002;51.196;7.010;2024-03-17T00:53:27;3.27;;;2.90;;
15799;SDS011;8002;51.196;7.010;2024-03-17T00:55:55;4.03;;;2.73;;
15799;SDS011;8002;51.196;7.010;2024-03-17T00:58:23;5.43;;;3.30;;
15799;SDS011;8002;51.196;7.010;2024-03-17T01:00:49;3.10;;;2.80;;
15799;SDS011;8002;51.196;7.010;2024-03-17T01:03:14;4.00;;;3.10;;
15799;SDS011;8002;51.196;7.010;2024-03-17T01:05:41;3.93;;;3.37;;
15799;SDS011;8002;51.196;7.010;2024-03-17T01:08:08;4.53;;;3.47;;
15799;SDS011;8002;51.196;7.010;2024-03-17T01:10:36;5.03;;;3.50;;
15799;SDS011;8002;51.196;7.010;2024-03-17T01:13:03;3.10;;;2.70;;
15799;SDS011;8002;51.196;7.010;2024-03-17T01:15:30;4.17;;;2.67;;
15799;SDS011;8002;51.196;7.010;2024-03-17T01:17:55;4.60;;;3.13;;
15799;SDS011;8002;51.196;7.010;2024-03-17T01:20:21;3.50;;;2.93;;
15799;SDS011;8002;51.196;7.010;2024-03-17T01:22:47;3.97;;;2.60;;
15799;SDS011;8002;51.196;7.010;2024-03-17T01:25:13;3.93;;;2.90;;
15799;SDS011;8002;51.196;7.010;2024-03-17T01:27:39;4.07;;;3.07;;
15799;SDS011;8002;51.196;7.010;2024-03-17T01:30:07;3.60;;;3.20;;
15799;SDS011;8002;51.196;7.010;2024-03-17T01:32:34;3.63;;;3.10;;
15799;SDS011;8002;51.196;7.010;2024-03-17T01:35:00;4.17;;;3.47;;
15799;SDS011;8002;51.196;7.010;2024-03-17T01:37:26;3.43;;;3.13;;
15799;SDS011;8002;51.196;7.010;2024-03-17T01:39:52;4.53;;;3.40;;
15799;SDS011;8002;51.196;7.010;2024-03-17T01:42:17;4.57;;;3.53;;
15799;SDS011;8002;51.196;7.010;2024-03-17T01:44:44;6.50;;;3.63;;
15799;SDS011;8002;51.196;7.010;2024-03-17T01:47:10;4.53;;;3.80;;
15799;SDS011;8002;51.196;7.010;2024-03-17T01:49:37;4.53;;;3.63;;
15799;SDS011;8002;51.196;7.010;2024-03-17T01:52:03;6.77;;;4.27;;
15799;SDS011;8002;51.196;7.010;2024-03-17T01:54:31;4.40;;;4.00;;
15799;SDS011;8002;51.196;7.010;2024-03-17T01:56:56;5.40;;;4.37;;
15799;SDS011;8002;51.196;7.010;2024-03-17T01:59:22;6.27;;;4.70;;
15799;SDS011;8002;51.196;7.010;2024-03-17T02:01:48;5.03;;;3.70;;
15799;SDS011;8002;51.196;7.010;2024-03-17T02:04:15;4.50;;;3.57;;
15799;SDS011;8002;51.196;7.010;2024-03-17T02:06:42;7.27;;;4.70;;
15799;SDS011;8002;51.196;7.010;2024-03-17T02:09:10;4.63;;;4.00;;
15799;SDS011;8002;51.196;7.010;2024-03-17T02:11:35;4.77;;;4.37;;
15799;SDS011;8002;51.196;7.010;2024-03-17T02:14:01;6.13;;;4.30;;
15799;SDS011;8002;51.196;7.010;2024-03-17T02:16:27;4.37;;;3.83;;
15799;SDS011;8002;51.196;7.010;2024-03-17T02:18:54;6.23;;;4.63;;
15799;SDS011;8002;51.196;7.010;2024-03-17T02:21:20;6.00;;;4.40;;
15799;SDS011;8002;51.196;7.010;2024-03-17T02:23:49;5.67;;;4.73;;
15799;SDS011;8002;51.196;7.010;2024-03-17T02:26:14;5.03;;;4.17;;
15799;SDS011;8002;51.196;7.010;2024-03-17T02:28:41;7.47;;;4.97;;
15799;SDS011;8002;51.196;7.010;2024-03-17T02:31:08;6.97;;;5.07;;
15799;SDS011;8002;51.196;7.010;2024-03-17T02:33:35;6.20;;;5.53;;
15799;SDS011;8002;51.196;7.010;2024-03-17T02:36:00;6.80;;;5.33;;
15799;SDS011;8002;51.196;7.010;2024-03-17T02:38:28;6.70;;;5.07;;
15799;SDS011;8002;51.196;7.010;2024-03-17T02:41:14;8.40;;;5.80;;
15799;SDS011;8002;51.196;7.010;2024-03-17T02:43:40;6.17;;;4.70;;
15799;SDS011;8002;51.196;7.010;2024-03-17T02:46:06;5.93;;;5.33;;
15799;SDS011;8002;51.196;7.010;2024-03-17T02:48:33;6.63;;;5.50;;
15799;SDS011;8002;51.196;7.010;2024-03-17T02:51:00;7.20;;;5.83;;
15799;SDS011;8002;51.196;7.010;2024-03-17T02:53:26;7.33;;;5.50;;
15799;SDS011;8002;51.196;7.010;2024-03-17T02:55:52;7.27;;;5.50;;
15799;SDS011;8002;51.196;7.010;2024-03-17T02:58:20;6.43;;;5.73;;
15799;SDS011;8002;51.196;7.010;2024-03-17T03:00:46;6.70;;;5.33;;
15799;SDS011;8002;51.196;7.010;2024-03-17T03:03:13;5.47;;;4.90;;
15799;SDS011;8002;51.196;7.010;2024-03-17T03:05:39;7.60;;;5.97;;
15799;SDS011;8002;51.196;7.010;2024-03-17T03:08:05;8.43;;;6.00;;
15799;SDS011;8002;51.196;7.010;2024-03-17T03:10:32;8.40;;;6.73;;
15799;SDS011;8002;51.196;7.010;2024-03-17T03:13:00;6.60;;;5.77;;
15799;SDS011;8002;51.196;7.010;2024-03-17T03:15:28;7.53;;;6.47;;
15799;SDS011;8002;51.196;7.010;2024-03-17T03:17:56;8.07;;;6.50;;
15799;SDS011;8002;51.196;7.010;2024-03-17T03:20:22;7.63;;;6.47;;
15799;SDS011;8002;51.196;7.010;2024-03-17T03:22:49;7.60;;;6.23;;
15799;SDS011;8002;51.196;7.010;2024-03-17T03:25:15;7.13;;;6.13;;
15799;SDS011;8002;51.196;7.010;2024-03-17T03:27:41;7.10;;;6.40;;
15799;SDS011;8002;51.196;7.010;2024-03-17T03:30:08;6.17;;;5.57;;
15799;SDS011;8002;51.196;7.010;2024-03-17T03:32:36;8.47;;;7.07;;
15799;SDS011;8002;51.196;7.010;2024-03-17T03:35:03;8.53;;;6.70;;
15799;SDS011;8002;51.196;7.010;2024-03-17T03:37:30;7.37;;;5.90;;
15799;SDS011;8002;51.196;7.010;2024-03-17T03:39:55;7.50;;;5.97;;
15799;SDS011;8002;51.196;7.010;2024-03-17T03:42:22;7.50;;;6.00;;
15799;SDS011;8002;51.196;7.010;2024-03-17T03:44:48;8.70;;;7.10;;
15799;SDS011;8002;51.196;7.010;2024-03-17T03:47:15;8.60;;;7.03;;
15799;SDS011;8002;51.196;7.010;2024-03-17T03:49:42;9.23;;;6.73;;
15799;SDS011;8002;51.196;7.010;2024-03-17T03:52:10;9.10;;;6.97;;
15799;SDS011;8002;51.196;7.010;2024-03-17T03:54:36;8.07;;;6.97;;
15799;SDS011;8002;51.196;7.010;2024-03-17T03:57:03;7.60;;;6.83;;
15799;SDS011;8002;51.196;7.010;2024-03-17T03:59:29;8.10;;;6.53;;
15799;SDS011;8002;51.196;7.010;2024-03-17T04:01:55;7.77;;;5.90;;
15799;SDS011;8002;51.196;7.010;2024-03-17T04:04:23;7.27;;;5.90;;
15799;SDS011;8002;51.196;7.010;2024-03-17T04:06:51;7.00;;;5.70;;
15799;SDS011;8002;51.196;7.010;2024-03-17T04:09:17;7.77;;;5.60;;
15799;SDS011;8002;51.196;7.010;2024-03-17T04:11:45;5.97;;;5.37;;
15799;SDS011;8002;51.196;7.010;2024-03-17T04:14:11;6.67;;;5.97;;
15799;SDS011;8002;51.196;7.010;2024-03-17T04:16:37;7.83;;;6.10;;
15799;SDS011;8002;51.196;7.010;2024-03-17T04:19:04;6.07;;;5.33;;
15799;SDS011;8002;51.196;7.010;2024-03-17T04:21:31;6.40;;;5.23;;
15799;SDS011;8002;51.196;7.010;2024-03-17T04:23:59;6.40;;;5.37;;
15799;SDS011;8002;51.196;7.010;2024-03-17T04:26:25;7.30;;;5.77;;
15799;SDS011;8002;51.196;7.010;2024-03-17T04:28:52;6.03;;;5.43;;
15799;SDS011;8002;51.196;7.010;2024-03-17T04:31:18;6.43;;;5.60;;
15799;SDS011;8002;51.196;7.010;2024-03-17T04:33:45;5.67;;;5.07;;
15799;SDS011;8002;51.196;7.010;2024-03-17T04:36:11;6.10;;;5.43;;
15799;SDS011;8002;51.196;7.010;2024-03-17T04:38:38;5.20;;;4.70;;
15799;SDS011;8002;51.196;7.010;2024-03-17T04:41:06;5.40;;;4.83;;
15799;SDS011;8002;51.196;7.010;2024-03-17T04:43:34;5.70;;;5.10;;
15799;SDS011;8002;51.196;7.010;2024-03-17T04:46:02;6.23;;;5.37;;
15799;SDS011;8002;51.196;7.010;2024-03-17T04:48:29;6.27;;;4.67;;
15799;SDS011;8002;51.196;7.010;2024-03-17T04:50:55;7.30;;;4.70;;
15799;SDS011;8002;51.196;7.010;2024-03-17T04:53:22;6.80;;;5.50;;
15799;SDS011;8002;51.196;7.010;2024-03-17T04:55:48;6.47;;;5.63;;
15799;SDS011;8002;51.196;7.010;2024-03-17T04:58:24;6.03;;;5.23;;
15799;SDS011;8002;51.196;7.010;2024-03-17T05:00:51;6.13;;;4.63;;
15799;SDS011;8002;51.196;7.010;2024-03-17T05:03:17;6.73;;;4.83;;
15799;SDS011;8002;51.196;7.010;2024-03-17T05:05:43;4.57;;;4.17;;
15799;SDS011;8002;51.196;7.010;2024-03-17T05:08:09;5.93;;;4.97;;
15799;SDS011;8002;51.196;7.010;2024-03-17T05:10:36;5.37;;;4.63;;
15799;SDS011;8002;51.196;7.010;2024-03-17T05:13:02;5.73;;;5.23;;
15799;SDS011;8002;51.196;7.010;2024-03-17T05:15:30;6.00;;;5.37;;
15799;SDS011;8002;51.196;7.010;2024-03-17T05:17:56;5.80;;;4.70;;
15799;SDS011;8002;51.196;7.010;2024-03-17T05:20:23;6.13;;;3.97;;
15799;SDS011;8002;51.196;7.010;2024-03-17T05:22:49;4.63;;;4.23;;
15799;SDS011;8002;51.196;7.010;2024-03-17T05:25:15;5.83;;;5.17;;
15799;SDS011;8002;51.196;7.010;2024-03-17T05:27:42;7.17;;;4.77;;
15799;SDS011;8002;51.196;7.010;2024-03-17T05:30:08;5.17;;;4.10;;
15799;SDS011;8002;51.196;7.010;2024-03-17T05:32:36;7.17;;;4.80;;
15799;SDS011;8002;51.196;7.010;2024-03-17T05:35:03;5.27;;;4.20;;
15799;SDS011;8002;51.196;7.010;2024-03-17T05:37:30;5.03;;;3.90;;
15799;SDS011;8002;51.196;7.010;2024-03-17T05:39:57;6.20;;;4.83;;
15799;SDS011;8002;51.196;7.010;2024-03-17T05:42:23;5.70;;;4.57;;
15799;SDS011;8002;51.196;7.010;2024-03-17T05:44:49;4.67;;;4.10;;
15799;SDS011;8002;51.196;7.010;2024-03-17T05:47:16;4.80;;;4.33;;
15799;SDS011;8002;51.196;7.010;2024-03-17T05:49:44;5.73;;;4.40;;
15799;SDS011;8002;51.196;7.010;2024-03-17T05:52:10;4.83;;;4.17;;
15799;SDS011;8002;51.196;7.010;2024-03-17T05:54:37;4.30;;;3.90;;
15799;SDS011;8002;51.196;7.010;2024-03-17T05:57:03;5.67;;;3.97;;
15799;SDS011;8002;51.196;7.010;2024-03-17T05:59:30;5.63;;;4.20;;
15799;SDS011;8002;51.196;7.010;2024-03-17T06:01:57;5.57;;;4.73;;
15799;SDS011;8002;51.196;7.010;2024-03-17T06:04:23;4.93;;;4.03;;
15799;SDS011;8002;51.196;7.010;2024-03-17T06:06:51;4.73;;;4.33;;
15799;SDS011;8002;51.196;7.010;2024-03-17T06:09:17;4.27;;;3.60;;
15799;SDS011;8002;51.196;7.010;2024-03-17T06:11:45;4.43;;;4.00;;
15799;SDS011;8002;51.196;7.010;2024-03-17T06:14:12;4.37;;;3.97;;
15799;SDS011;8002;51.196;7.010;2024-03-17T06:16:38;4.80;;;3.97;;
15799;SDS011;8002;51.196;7.010;2024-03-17T06:19:04;6.80;;;4.77;;
15799;SDS011;8002;51.196;7.010;2024-03-17T06:21:32;4.97;;;4.47;;
15799;SDS011;8002;51.196;7.010;2024-03-17T06:23:59;4.63;;;4.23;;
15799;SDS011;8002;51.196;7.010;2024-03-17T06:26:26;4.30;;;3.83;;
15799;SDS011;8002;51.196;7.010;2024-03-17T06:28:52;5.13;;;3.93;;
15799;SDS011;8002;51.196;7.010;2024-03-17T06:31:19;4.67;;;4.27;;
15799;SDS011;8002;51.196;7.010;2024-03-17T06:33:45;4.40;;;3.80;;
15799;SDS011;8002;51.196;7.010;2024-03-17T06:36:12;4.67;;;3.90;;
15799;SDS011;8002;51.196;7.010;2024-03-17T06:38:38;4.60;;;3.93;;
15799;SDS011;8002;51.196;7.010;2024-03-17T06:41:07;6.00;;;4.60;;
15799;SDS011;8002;51.196;7.010;2024-03-17T06:43:35;6.47;;;4.37;;
15799;SDS011;8002;51.196;7.010;2024-03-17T06:46:02;4.20;;;3.83;;
15799;SDS011;8002;51.196;7.010;2024-03-17T06:48:29;3.93;;;3.53;;
15799;SDS011;8002;51.196;7.010;2024-03-17T06:50:55;3.97;;;3.57;;
15799;SDS011;8002;51.196;7.010;2024-03-17T06:53:22;3.93;;;3.50;;
15799;SDS011;8002;51.196;7.010;2024-03-17T06:55:52;4.10;;;3.33;;
15799;SDS011;8002;51.196;7.010;2024-03-17T06:58:19;4.90;;;3.70;;
15799;SDS011;8002;51.196;7.010;2024-03-17T07:00:51;4.63;;;3.63;;
15799;SDS011;8002;51.196;7.010;2024-03-17T07:03:18;3.63;;;3.17;;
15799;SDS011;8002;51.196;7.010;2024-03-17T07:05:50;3.67;;;3.20;;
15799;SDS011;8002;51.196;7.010;2024-03-17T07:08:16;3.80;;;3.27;;
15799;SDS011;8002;51.196;7.010;2024-03-17T07:10:44;4.00;;;3.60;;
15799;SDS011;8002;51.196;7.010;2024-03-17T07:13:21;3.83;;;3.40;;
15799;SDS011;8002;51.196;7.010;2024-03-17T07:15:48;4.67;;;3.63;;
15799;SDS011;8002;51.196;7.010;2024-03-17T07:18:14;3.77;;;3.00;;
15799;SDS011;8002;51.196;7.010;2024-03-17T07:20:41;4.40;;;3.50;;
15799;SDS011;8002;51.196;7.010;2024-03-17T07:23:07;3.83;;;2.80;;
15799;SDS011;8002;51.196;7.010;2024-03-17T07:25:34;3.23;;;2.93;;
15799;SDS011;8002;51.196;7.010;2024-03-17T07:28:00;3.30;;;3.00;;
15799;SDS011;8002;51.196;7.010;2024-03-17T07:30:28;4.27;;;3.23;;
15799;SDS011;8002;51.196;7.010;2024-03-17T07:32:54;3.43;;;3.13;;
15799;SDS011;8002;51.196;7.010;2024-03-17T07:35:20;8.83;;;3.67;;
15799;SDS011;8002;51.196;7.010;2024-03-17T07:37:47;3.57;;;3.27;;
15799;SDS011;8002;51.196;7.010;2024-03-17T07:40:13;4.40;;;3.23;;
15799;SDS011;8002;51.196;7.010;2024-03-17T07:42:40;3.27;;;2.97;;
15799;SDS011;8002;51.196;7.010;2024-03-17T07:45:07;3.87;;;3.27;;
15799;SDS011;8002;51.196;7.010;2024-03-17T07:47:35;3.80;;;3.27;;
15799;SDS011;8002;51.196;7.010;2024-03-17T07:50:01;5.33;;;3.40;;
15799;SDS011;8002;51.196;7.010;2024-03-17T07:52:29;4.63;;;3.40;;
15799;SDS011;8002;51.196;7.010;2024-03-17T07:54:55;3.63;;;3.10;;
15799;SDS011;8002;51.196;7.010;2024-03-17T07:57:22;3.77;;;3.13;;
15799;SDS011;8002;51.196;7.010;2024-03-17T07:59:49;3.90;;;3.37;;
15799;SDS011;8002;51.196;7.010;2024-03-17T08:02:16;3.53;;;3.00;;
15799;SDS011;8002;51.196;7.010;2024-03-17T08:04:43;3.90;;;2.70;;
15799;SDS011;8002;51.196;7.010;2024-03-17T08:07:10;3.93;;;3.30;;
15799;SDS011;8002;51.196;7.010;2024-03-17T08:09:37;3.90;;;3.00;;
15799;SDS011;8002;51.196;7.010;2024-03-17T08:12:03;3.50;;;3.20;;
15799;SDS011;8002;51.196;7.010;2024-03-17T08:14:29;3.17;;;2.87;;
15799;SDS011;8002;51.196;7.010;2024-03-17T08:16:56;4.93;;;3.00;;
15799;SDS011;8002;51.196;7.010;2024-03-17T08:19:22;4.13;;;3.37;;
15799;SDS011;8002;51.196;7.010;2024-03-17T08:21:50;3.60;;;3.30;;
15799;SDS011;8002;51.196;7.010;2024-03-17T08:24:16;3.00;;;2.60;;
15799;SDS011;8002;51.196;7.010;2024-03-17T08:26:42;2.73;;;2.53;;
15799;SDS011;8002;51.196;7.010;2024-03-17T08:29:10;3.80;;;3.40;;
15799;SDS011;8002;51.196;7.010;2024-03-17T08:31:36;3.60;;;2.60;;
15799;SDS011;8002;51.196;7.010;2024-03-17T08:34:03;3.90;;;2.80;;
15799;SDS011;8002;51.196;7.010;2024-03-17T08:36:29;3.47;;;3.17;;
15799;SDS011;8002;51.196;7.010;2024-03-17T08:38:57;4.47;;;3.37;;
15799;SDS011;8002;51.196;7.010;2024-03-17T08:41:23;3.17;;;2.87;;
15799;SDS011;8002;51.196;7.010;2024-03-17T08:43:50;3.03;;;2.73;;
15799;SDS011;8002;51.196;7.010;2024-03-17T08:46:17;3.30;;;3.00;;
15799;SDS011;8002;51.196;7.010;2024-03-17T08:48:43;4.03;;;3.43;;
15799;SDS011;8002;51.196;7.010;2024-03-17T08:51:09;3.23;;;2.93;;
15799;SDS011;8002;51.196;7.010;2024-03-17T08:53:36;3.50;;;3.10;;
15799;SDS011;8002;51.196;7.010;2024-03-17T08:56:05;3.37;;;2.77;;
15799;SDS011;8002;51.196;7.010;2024-03-17T08:58:33;3.20;;;2.90;;
15799;SDS011;8002;51.196;7.010;2024-03-17T09:01:02;3.50;;;2.83;;
15799;SDS011;8002;51.196;7.010;2024-03-17T09:03:29;3.57;;;2.97;;
15799;SDS011;8002;51.196;7.010;2024-03-17T09:05:55;3.13;;;2.80;;
15799;SDS011;8002;51.196;7.010;2024-03-17T09:08:22;3.37;;;3.07;;
15799;SDS011;8002;51.196;7.010;2024-03-17T09:10:49;2.77;;;2.40;;
15799;SDS011;8002;51.196;7.010;2024-03-17T09:13:17;3.30;;;3.00;;
15799;SDS011;8002;51.196;7.010;2024-03-17T09:15:50;3.10;;;2.67;;
15799;SDS011;8002;51.196;7.010;2024-03-17T09:18:17;3.80;;;2.53;;
15799;SDS011;8002;51.196;7.010;2024-03-17T09:20:43;2.77;;;2.57;;
15799;SDS011;8002;51.196;7.010;2024-03-17T09:23:10;3.93;;;2.67;;
15799;SDS011;8002;51.196;7.010;2024-03-17T09:25:37;3.73;;;3.03;;
15799;SDS011;8002;51.196;7.010;2024-03-17T09:28:03;3.37;;;2.80;;
15799;SDS011;8002;51.196;7.010;2024-03-17T09:30:31;3.33;;;2.63;;
15799;SDS011;8002;51.196;7.010;2024-03-17T09:32:57;4.67;;;3.23;;
15799;SDS011;8002;51.196;7.010;2024-03-17T09:35:25;3.60;;;3.30;;
15799;SDS011;8002;51.196;7.010;2024-03-17T09:37:51;3.90;;;2.73;;
15799;SDS011;8002;51.196;7.010;2024-03-17T09:40:17;4.10;;;3.07;;
15799;SDS011;8002;51.196;7.010;2024-03-17T09:42:44;3.53;;;3.23;;
15799;SDS011;8002;51.196;7.010;2024-03-17T09:45:10;6.40;;;3.20;;
15799;SDS011;8002;51.196;7.010;2024-03-17T09:47:38;4.90;;;3.07;;
15799;SDS011;8002;51.196;7.010;2024-03-17T09:50:07;3.17;;;2.80;;
15799;SDS011;8002;51.196;7.010;2024-03-17T09:52:38;4.10;;;3.27;;
15799;SDS011;8002;51.196;7.010;2024-03-17T09:55:08;3.93;;;3.63;;
15799;SDS011;8002;51.196;7.010;2024-03-17T09:57:35;3.53;;;3.20;;
15799;SDS011;8002;51.196;7.010;2024-03-17T10:00:03;5.33;;;3.47;;
15799;SDS011;8002;51.196;7.010;2024-03-17T10:02:30;3.50;;;2.80;;
15799;SDS011;8002;51.196;7.010;2024-03-17T10:04:58;4.17;;;3.37;;
15799;SDS011;8002;51.196;7.010;2024-03-17T10:07:31;5.77;;;3.30;;
15799;SDS011;8002;51.196;7.010;2024-03-17T10:10:10;3.43;;;3.13;;
15799;SDS011;8002;51.196;7.010;2024-03-17T10:12:37;3.50;;;3.20;;
15799;SDS011;8002;51.196;7.010;2024-03-17T10:15:04;3.57;;;2.87;;
15799;SDS011;8002;51.196;7.010;2024-03-17T10:17:31;3.80;;;3.08;;
15799;SDS011;8002;51.196;7.010;2024-03-17T10:20:12;3.70;;;3.03;;
15799;SDS011;8002;51.196;7.010;2024-03-17T10:22:40;3.43;;;3.17;;
15799;SDS011;8002;51.196;7.010;2024-03-17T10:25:07;3.45;;;3.15;;
15799;SDS011;8002;51.196;7.010;2024-03-17T10:27:34;3.58;;;3.22;;
15799;SDS011;8002;51.196;7.010;2024-03-17T10:30:01;4.68;;;3.10;;
15799;SDS011;8002;51.196;7.010;2024-03-17T10:32:27;3.50;;;3.17;;
15799;SDS011;8002;51.196;7.010;2024-03-17T10:34:54;4.43;;;3.77;;
15799;SDS011;8002;51.196;7.010;2024-03-17T10:37:21;4.78;;;3.78;;
15799;SDS011;8002;51.196;7.010;2024-03-17T10:39:50;5.97;;;3.27;;
15799;SDS011;8002;51.196;7.010;2024-03-17T10:42:21;4.03;;;3.70;;
15799;SDS011;8002;51.196;7.010;2024-03-17T10:44:49;3.03;;;2.73;;
15799;SDS011;8002;51.196;7.010;2024-03-17T10:47:17;4.80;;;3.47;;
15799;SDS011;8002;51.196;7.010;2024-03-17T10:49:46;4.50;;;4.10;;
15799;SDS011;8002;51.196;7.010;2024-03-17T10:52:15;3.90;;;3.53;;
15799;SDS011;8002;51.196;7.010;2024-03-17T10:54:44;4.57;;;2.90;;
15799;SDS011;8002;51.196;7.010;2024-03-17T10:57:15;3.45;;;2.90;;
15799;SDS011;8002;51.196;7.010;2024-03-17T10:59:42;5.30;;;3.22;;
15799;SDS011;8002;51.196;7.010;2024-03-17T11:02:22;3.08;;;2.88;;
15799;SDS011;8002;51.196;7.010;2024-03-17T11:04:53;3.63;;;2.50;;
15799;SDS011;8002;51.196;7.010;2024-03-17T11:07:20;4.78;;;3.38;;
15799;SDS011;8002;51.196;7.010;2024-03-17T11:09:49;3.92;;;3.50;;
15799;SDS011;8002;51.196;7.010;2024-03-17T11:17:42;3.72;;;3.35;;
15799;SDS011;8002;51.196;7.010;2024-03-17T11:20:10;5.03;;;2.97;;
15799;SDS011;8002;51.196;7.010;2024-03-17T11:22:42;3.58;;;3.00;;
15799;SDS011;8002;51.196;7.010;2024-03-17T11:28:01;5.57;;;3.15;;
15799;SDS011;8002;51.196;7.010;2024-03-17T11:30:43;3.65;;;3.05;;
15799;SDS011;8002;51.196;7.010;2024-03-17T11:35:52;3.33;;;3.03;;
15799;SDS011;8002;51.196;7.010;2024-03-17T11:38:50;3.35;;;2.72;;
15799;SDS011;8002;51.196;7.010;2024-03-17T11:44:13;3.90;;;3.53;;
15799;SDS011;8002;51.196;7.010;2024-03-17T11:46:40;3.33;;;2.90;;
15799;SDS011;8002;51.196;7.010;2024-03-17T11:49:05;6.43;;;3.58;;
15799;SDS011;8002;51.196;7.010;2024-03-17T11:51:33;4.82;;;3.42;;
15799;SDS011;8002;51.196;7.010;2024-03-17T11:53:59;4.28;;;2.92;;
15799;SDS011;8002;51.196;7.010;2024-03-17T11:56:25;3.20;;;2.90;;
15799;SDS011;8002;51.196;7.010;2024-03-17T11:59:03;3.30;;;2.67;;
15799;SDS011;8002;51.196;7.010;2024-03-17T12:01:30;3.85;;;3.20;;
15799;SDS011;8002;51.196;7.010;2024-03-17T12:03:56;4.00;;;2.95;;
15799;SDS011;8002;51.196;7.010;2024-03-17T12:06:23;2.60;;;2.38;;
15799;SDS011;8002;51.196;7.010;2024-03-17T12:08:49;3.30;;;3.00;;
15799;SDS011;8002;51.196;7.010;2024-03-17T12:11:16;3.00;;;2.20;;
15799;SDS011;8002;51.196;7.010;2024-03-17T12:13:42;4.07;;;2.55;;
15799;SDS011;8002;51.196;7.010;2024-03-17T12:16:12;3.60;;;3.30;;
15799;SDS011;8002;51.196;7.010;2024-03-17T12:18:39;3.70;;;3.00;;
15799;SDS011;8002;51.196;7.010;2024-03-17T12:21:10;2.67;;;2.25;;
15799;SDS011;8002;51.196;7.010;2024-03-17T12:23:36;2.83;;;2.50;;
15799;SDS011;8002;51.196;7.010;2024-03-17T12:26:02;2.92;;;2.35;;
15799;SDS011;8002;51.196;7.010;2024-03-17T12:28:27;4.03;;;2.78;;
15799;SDS011;8002;51.196;7.010;2024-03-17T12:30:54;2.47;;;2.22;;
15799;SDS011;8002;51.196;7.010;2024-03-17T12:33:24;2.90;;;2.28;;
15799;SDS011;8002;51.196;7.010;2024-03-17T12:35:51;2.95;;;2.65;;
15799;SDS011;8002;51.196;7.010;2024-03-17T12:38:20;3.13;;;2.33;;
15799;SDS011;8002;51.196;7.010;2024-03-17T12:40:48;3.72;;;2.97;;
15799;SDS011;8002;51.196;7.010;2024-03-17T12:43:13;3.85;;;2.67;;
15799;SDS011;8002;51.196;7.010;2024-03-17T12:45:39;2.70;;;2.45;;
15799;SDS011;8002;51.196;7.010;2024-03-17T12:48:10;2.88;;;2.65;;
15799;SDS011;8002;51.196;7.010;2024-03-17T12:50:43;2.80;;;2.60;;
15799;SDS011;8002;51.196;7.010;2024-03-17T12:53:13;3.20;;;2.58;;
15799;SDS011;8002;51.196;7.010;2024-03-17T12:55:41;2.42;;;2.22;;
15799;SDS011;8002;51.196;7.010;2024-03-17T12:58:26;3.85;;;3.00;;
15799;SDS011;8002;51.196;7.010;2024-03-17T13:01:11;2.65;;;2.45;;
15799;SDS011;8002;51.196;7.010;2024-03-17T13:03:39;2.42;;;2.22;;
15799;SDS011;8002;51.196;7.010;2024-03-17T13:06:09;4.63;;;2.28;;
15799;SDS011;8002;51.196;7.010;2024-03-17T13:08:37;3.83;;;2.38;;
15799;SDS011;8002;51.196;7.010;2024-03-17T13:11:06;2.40;;;2.20;;
15799;SDS011;8002;51.196;7.010;2024-03-17T13:13:35;2.45;;;1.95;;
15799;SDS011;8002;51.196;7.010;2024-03-17T13:16:01;4.28;;;2.50;;
15799;SDS011;8002;51.196;7.010;2024-03-17T13:18:29;4.05;;;2.47;;
15799;SDS011;8002;51.196;7.010;2024-03-17T13:20:56;6.40;;;3.63;;
15799;SDS011;8002;51.196;7.010;2024-03-17T13:23:24;3.72;;;2.70;;
15799;SDS011;8002;51.196;7.010;2024-03-17T13:25:52;4.78;;;2.72;;
15799;SDS011;8002;51.196;7.010;2024-03-17T13:28:18;2.83;;;2.63;;
15799;SDS011;8002;51.196;7.010;2024-03-17T13:30:44;4.63;;;2.45;;
15799;SDS011;8002;51.196;7.010;2024-03-17T13:33:12;2.83;;;2.63;;
15799;SDS011;8002;51.196;7.010;2024-03-17T13:35:39;3.47;;;3.17;;
15799;SDS011;8002;51.196;7.010;2024-03-17T13:38:06;2.47;;;2.38;;
15799;SDS011;8002;51.196;7.010;2024-03-17T13:40:33;2.78;;;2.55;;
15799;SDS011;8002;51.196;7.010;2024-03-17T13:43:01;4.43;;;2.58;;
15799;SDS011;8002;51.196;7.010;2024-03-17T13:45:28;3.92;;;2.83;;
15799;SDS011;8002;51.196;7.010;2024-03-17T13:47:56;4.25;;;2.67;;
15799;SDS011;8002;51.196;7.010;2024-03-17T13:50:22;2.60;;;2.40;;
15799;SDS011;8002;51.196;7.010;2024-03-17T13:53:03;4.43;;;2.53;;
15799;SDS011;8002;51.196;7.010;2024-03-17T13:55:29;2.65;;;2.05;;
15799;SDS011;8002;51.196;7.010;2024-03-17T13:57:56;3.85;;;3.47;;
15799;SDS011;8002;51.196;7.010;2024-03-17T14:00:25;3.05;;;2.40;;
15799;SDS011;8002;51.196;7.010;2024-03-17T14:02:53;4.38;;;2.95;;
15799;SDS011;8002;51.196;7.010;2024-03-17T14:05:20;2.40;;;2.20;;
15799;SDS011;8002;51.196;7.010;2024-03-17T14:07:46;3.20;;;2.38;;
15799;SDS011;8002;51.196;7.010;2024-03-17T14:10:13;3.72;;;2.28;;
15799;SDS011;8002;51.196;7.010;2024-03-17T14:12:40;2.95;;;2.30;;
15799;SDS011;8002;51.196;7.010;2024-03-17T14:15:07;3.97;;;2.50;;
15799;SDS011;8002;51.196;7.010;2024-03-17T14:17:36;3.42;;;2.13;;
15799;SDS011;8002;51.196;7.010;2024-03-17T14:20:03;4.13;;;2.60;;
15799;SDS011;8002;51.196;7.010;2024-03-17T14:22:31;3.08;;;2.17;;
15799;SDS011;8002;51.196;7.010;2024-03-17T14:24:57;2.85;;;2.42;;
15799;SDS011;8002;51.196;7.010;2024-03-17T14:27:23;3.50;;;2.83;;
15799;SDS011;8002;51.196;7.010;2024-03-17T14:29:52;3.63;;;2.33;;
15799;SDS011;8002;51.196;7.010;2024-03-17T14:32:18;2.20;;;2.00;;
15799;SDS011;8002;51.196;7.010;2024-03-17T14:34:47;3.40;;;3.10;;
15799;SDS011;8002;51.196;7.010;2024-03-17T14:37:14;3.15;;;2.55;;
15799;SDS011;8002;51.196;7.010;2024-03-17T14:39:40;2.47;;;2.03;;
15799;SDS011;8002;51.196;7.010;2024-03-17T14:42:07;2.33;;;2.10;;
15799;SDS011;8002;51.196;7.010;2024-03-17T14:44:34;3.58;;;2.53;;
15799;SDS011;8002;51.196;7.010;2024-03-17T14:47:00;4.10;;;2.83;;
15799;SDS011;8002;51.196;7.010;2024-03-17T14:49:26;3.47;;;2.58;;
15799;SDS011;8002;51.196;7.010;2024-03-17T14:51:54;2.70;;;2.50;;
15799;SDS011;8002;51.196;7.010;2024-03-17T14:54:21;3.80;;;2.23;;
15799;SDS011;8002;51.196;7.010;2024-03-17T14:56:48;3.03;;;2.45;;
15799;SDS011;8002;51.196;7.010;2024-03-17T14:59:14;3.53;;;2.40;;
15799;SDS011;8002;51.196;7.010;2024-03-17T15:01:43;2.47;;;2.25;;
15799;SDS011;8002;51.196;7.010;2024-03-17T15:04:10;2.25;;;2.03;;
15799;SDS011;8002;51.196;7.010;2024-03-17T15:06:36;2.70;;;2.17;;
15799;SDS011;8002;51.196;7.010;2024-03-17T15:09:04;3.17;;;2.40;;
15799;SDS011;8002;51.196;7.010;2024-03-17T15:11:30;3.45;;;2.50;;
15799;SDS011;8002;51.196;7.010;2024-03-17T15:13:57;3.75;;;2.80;;
15799;SDS011;8002;51.196;7.010;2024-03-17T15:16:23;3.47;;;2.30;;